• Join FlightAware (Why Join?)
  • Login
  • US Flag 
05:15AM EDT


 

Airport Tracker/Info


-or-


 

Live Flight TrackerFlight Track Log ✈ UAL996 ✈ 24-Jul-2013 ✈ KEWR - KSFO

Flight Track Log - Related Links

Times and Time Zones

All times are in EDT time to prevent confusion due to time zone crossing. See the UAL996 flight status page for this flight to view local times or setup timezone preferences in your user account.

Time Position Orientation Groundspeed Altitude Reporting Facility
EDT Latitude Longitude Course Direction KTS MPH feet Rate Location/Type
03:49PM 40.7167 -74.1333 303° West 197 227 1,800  Level New York TRACON
03:50PM 40.7667 -74.1333 360° North 241 277 3,800 2,280 Climbing New York TRACON
03:51PM 40.7796 -74.5606 282° West  Level FlightAware Approximate
03:51PM 40.8000 -74.2167 298° West 264 304 6,400  Level New York TRACON
03:52PM 40.8049 -74.7043 287° West  Level FlightAware Approximate
03:52PM 40.8167 -74.3167 282° West 269 310 9,200  Level New York TRACON
03:53PM 40.8375 -74.8455 287° West  Level FlightAware Approximate
03:53PM 40.8333 -74.4167 282° West 307 353 10,700  Level New York TRACON
03:54PM 40.8740 -74.9812 303° West  Level FlightAware Approximate
03:54PM 40.8500 -74.5500 279° West 361 415 12,200  Level New York TRACON
03:55PM 40.8597 -74.6697 276° West 381 438 14,100 2,160 Climbing New York Center
03:56PM 40.8775 -74.8217 279° West 387 445 16,700 2,100 Climbing New York Center
03:57PM 40.8936 -74.9544 279° West 398 458 18,300 1,860 Climbing New York Center
03:58PM 40.9131 -75.1122 279° West 398 458 20,400 1,860 Climbing New York Center
03:59PM 40.8972 -75.2594 262° West 408 470 22,100 1,560 Climbing New York Center
04:00PM 40.8664 -75.4083 255° West 408 470 23,600 1,740 Climbing New York Center
04:01PM 40.8314 -75.5514 252° West 413 475 25,600 1,620 Climbing New York Center
04:02PM 40.7964 -75.6997 253° West 418 481 26,900 1,140 Climbing New York Center
04:03PM 40.7586 -75.8531 252° West 424 488 28,000 540 Climbing New York Center
04:04PM 40.7275 -75.9878 253° West 424 488 28,000  Level New York Center
04:05PM 40.6897 -76.1381 252° West 434 499 28,000 180 Level New York Center
04:06PM 40.6697 -76.2981 261° West 434 499 28,400 600 Climbing New York Center
04:07PM 40.6956 -76.4589 282° West 434 499 29,300 1,020 Climbing New York Center
04:08PM 40.7231 -76.6228 283° West 451 519 30,500 1,320 Climbing New York Center
04:09PM 40.7442 -76.7808 280° West 451 519 32,000 720 Climbing New York Center
04:10PM 40.7675 -76.9336 281° West 444 511 32,000  Level New York Center
04:11PM 40.7906 -77.0892 281° West 437 503 32,000  Level New York Center
04:12PM 40.8114 -77.2447 280° West 432 497 32,000  Level New York Center
04:13PM 40.8375 -77.4144 282° West 432 497 32,000  Level New York Center
04:14PM 40.8697 -77.6561 280° West 413 475 32,000  Level Cleveland Center
04:15PM 40.8922 -77.8061 281° West 423 487 32,000  Level Cleveland Center
04:16PM 40.9128 -77.9617 280° West 428 493 32,000  Level Cleveland Center
04:17PM 40.9308 -78.1178 279° West 428 493 32,000  Level Cleveland Center
04:18PM 40.9553 -78.2928 281° West 428 493 32,000  Level Cleveland Center
04:19PM 40.9728 -78.4464 279° West 426 490 32,000  Level Cleveland Center
04:20PM 40.9944 -78.6050 280° West 426 490 32,000  Level Cleveland Center
04:21PM 41.0069 -78.7314 278° West 426 490 32,000  Level Cleveland Center
04:22PM 41.0264 -78.9181 278° West 426 490 32,000  Level Cleveland Center
04:23PM 41.0453 -79.0744 279° West 426 490 32,000 60 Level Cleveland Center
04:24PM 41.0619 -79.2311 278° West 426 490 32,200 660 Climbing Cleveland Center
04:25PM 41.0803 -79.3875 279° West 426 490 33,400 900 Climbing Cleveland Center
04:26PM 41.0942 -79.5278 278° West 426 490 34,000 300 Climbing Cleveland Center
04:27PM 41.1100 -79.6819 278° West 426 490 34,000  Level Cleveland Center
04:28PM 41.1278 -79.8333 279° West 426 490 34,000  Level Cleveland Center
04:29PM 41.1414 -80.0097 276° West 426 490 34,000  Level Cleveland Center
04:30PM 41.1586 -80.1503 279° West 431 496 34,000  Level Cleveland Center
04:31PM 41.1758 -80.3072 278° West 431 496 34,000  Level Cleveland Center
04:32PM 41.1908 -80.4700 277° West 437 503 34,000  Level Cleveland Center
04:33PM 41.2053 -80.6300 277° West 443 510 34,000  Level Cleveland Center
04:34PM 41.2239 -80.8067 278° West 438 504 34,000  Level Cleveland Center
04:35PM 41.2381 -80.9642 277° West 438 504 34,000  Level Cleveland Center
04:36PM 41.2519 -81.1217 277° West 444 511 34,000  Level Cleveland Center
04:37PM 41.2678 -81.2819 278° West 444 511 34,000  Level Cleveland Center
04:38PM 41.2836 -81.4231 279° West 444 511 34,000  Level Cleveland Center
04:39PM 41.2989 -81.5808 277° West 444 511 34,000  Level Cleveland Center
04:40PM 41.3119 -81.7469 276° West 444 511 34,000  Level Cleveland Center
04:41PM 41.3269 -81.9047 277° West 444 511 34,000  Level Cleveland Center
04:42PM 41.3394 -82.0683 276° West 444 511 34,000  Level Cleveland Center
04:43PM 41.3539 -82.2456 276° West 444 511 34,000  Level Cleveland Center
04:44PM 41.3658 -82.4092 276° West 444 511 34,000  Level Cleveland Center
04:45PM 41.3778 -82.5700 276° West 439 505 34,000  Level Cleveland Center
04:46PM 41.3875 -82.7281 275° West 439 505 34,000  Level Cleveland Center
04:47PM 41.3967 -82.8917 274° West 445 512 34,000  Level Cleveland Center
04:48PM 41.4058 -83.0497 274° West 440 506 34,000  Level Cleveland Center
04:49PM 41.4067 -83.2078 270° West 440 506 34,000  Level Cleveland Center
04:50PM 41.4092 -83.3683 271° West 440 506 34,000  Level Cleveland Center
04:51PM 41.4133 -83.5319 272° West 440 506 34,000  Level Cleveland Center
04:52PM 41.4175 -83.6900 272° West 440 506 34,000  Level Cleveland Center
04:53PM 41.4192 -83.8481 271° West 435 501 34,000  Level Cleveland Center
04:54PM 41.4231 -84.0089 272° West 435 501 34,000  Level Cleveland Center
04:55PM 41.4244 -84.1667 271° West 435 501 34,000  Level Cleveland Center
04:56PM 41.4319 -84.3222 274° West 435 501 34,000  Level Cleveland Center
04:58PM 41.4344 -84.5372 271° West 426 490 34,000  Level Chicago Center
04:59PM 41.4350 -84.6961 270° West 429 494 34,000  Level Chicago Center
05:00PM 41.4364 -84.8550 271° West 430 495 34,000  Level Chicago Center
05:01PM 41.4372 -85.0142 270° West 429 494 34,000  Level Chicago Center
05:02PM 41.4383 -85.1753 271° West 432 497 34,000  Level Chicago Center
05:03PM 41.4383 -85.3369 270° West 432 497 34,000  Level Chicago Center
05:04PM 41.4386 -85.4997 270° West 432 497 34,000  Level Chicago Center
05:05PM 41.4406 -85.6611 271° West 431 496 34,000  Level Chicago Center
05:06PM 41.4408 -85.8539 270° West 432 497 34,000  Level Chicago Center
05:07PM 41.4408 -86.0128 270° West 431 496 34,000  Level Chicago Center
05:08PM 41.4406 -86.1736 270° West 432 497 34,000  Level Chicago Center
05:09PM 41.4400 -86.3294 270° West 424 488 34,000  Level Chicago Center
05:10PM 41.4394 -86.4883 270° West 428 493 34,000  Level Chicago Center
05:11PM 41.4392 -86.6478 270° West 430 495 34,000  Level Chicago Center
05:12PM 41.4369 -86.8333 269° West 429 494 34,000  Level Chicago Center
05:13PM 41.4361 -86.9908 270° West 429 494 34,000  Level Chicago Center
05:14PM 41.4342 -87.1492 269° West 429 494 34,000  Level Chicago Center
05:15PM 41.4331 -87.3067 270° West 428 493 34,000  Level Chicago Center
05:16PM 41.4311 -87.4967 269° West 428 493 34,000  Level Chicago Center
05:17PM 41.4292 -87.6542 269° West 428 493 34,000  Level Chicago Center
05:18PM 41.4269 -87.8106 269° West 425 489 34,000  Level Chicago Center
05:19PM 41.4239 -87.9783 269° West 429 494 34,000  Level Chicago Center
05:20PM 41.4236 -88.1358 270° West 428 493 34,000  Level Chicago Center
05:21PM 41.4181 -88.2953 267° West 421 484 34,000  Level Chicago Center
05:22PM 41.4144 -88.4506 268° West 423 487 34,000  Level Chicago Center
05:23PM 41.4108 -88.6069 268° West 424 488 34,000  Level Chicago Center
05:24PM 41.4061 -88.7900 268° West 419 482 34,000  Level Chicago Center
05:26PM 41.4019 -88.9456 268° West 421 484 34,000  Level Chicago Center
05:27PM 41.3978 -89.0994 268° West 421 484 34,000  Level Chicago Center
05:29PM 41.3906 -89.4108 268° West 426 490 34,000  Level Chicago Center
05:30PM 41.3847 -89.5953 268° West 420 483 34,000  Level Chicago Center
05:31PM 41.3800 -89.7489 268° West 419 482 34,000  Level Chicago Center
05:32PM 41.3753 -89.9031 268° West 420 483 34,000  Level Chicago Center
05:33PM 41.3706 -90.0578 268° West 421 484 34,000  Level Chicago Center
05:34PM 41.3644 -90.2136 267° West 423 487 34,000  Level Chicago Center
05:35PM 41.3569 -90.4003 267° West 424 488 34,000  Level Chicago Center
05:36PM 41.3506 -90.5561 267° West 424 488 34,000  Level Chicago Center
05:37PM 41.3439 -90.7125 267° West 425 489 34,000  Level Chicago Center
05:38PM 41.3372 -90.8686 267° West 423 487 34,000  Level Chicago Center
05:39PM 41.3306 -91.0244 267° West 424 488 34,000  Level Chicago Center
05:40PM 41.3225 -91.1833 266° West 430 495 34,000  Level Chicago Center
05:41PM 41.3147 -91.3608 267° West 428 493 34,000  Level Chicago Center
05:42PM 41.3069 -91.5189 266° West 430 495 34,000  Level Chicago Center
05:43PM 41.2992 -91.6769 266° West 431 496 34,000  Level Chicago Center
05:44PM 41.2894 -91.8656 266° West 430 495 34,000  Level Chicago Center
05:45PM 41.2794 -92.0236 265° West 431 496 34,000  Level Chicago Center
05:46PM 41.2714 -92.1797 266° West 428 493 34,000  Level Chicago Center
05:47PM 41.2625 -92.3372 266° West 428 493 34,000  Level Chicago Center
05:48PM 41.2544 -92.4956 266° West 428 493 34,000  Level Chicago Center
05:49PM 41.2425 -92.6822 265° West 429 494 34,000  Level Chicago Center
05:50PM 41.2333 -92.8364 266° West 427 491 34,000  Level Chicago Center
05:51PM 41.2303 -92.8997 266° West 427 491 34,000  Level Minneapolis Center
05:52PM 41.2186 -93.0856 265° West 427 491 34,000  Level Minneapolis Center
05:53PM 41.2092 -93.2400 265° West 426 490 34,000  Level Minneapolis Center
05:54PM 41.1983 -93.3936 265° West 424 488 34,000  Level Minneapolis Center
05:55PM 41.1883 -93.5453 265° West 420 483 34,000  Level Minneapolis Center
05:56PM 41.1786 -93.6961 265° West 416 479 34,000  Level Minneapolis Center
05:57PM 41.1667 -93.8794 265° West 419 482 34,000  Level Minneapolis Center
05:58PM 41.1567 -94.0311 265° West 417 480 34,000  Level Minneapolis Center
05:59PM 41.1469 -94.1822 265° West 416 479 34,000  Level Minneapolis Center
06:00PM 41.1322 -94.3633 264° West 416 479 34,000  Level Minneapolis Center
06:01PM 41.1197 -94.5144 264° West 415 478 34,000 120 Level Minneapolis Center
06:02PM 41.1003 -94.6583 260° West 413 475 34,300 720 Climbing Minneapolis Center
06:03PM 41.0603 -94.8078 251° West 420 483 35,600 1,320 Climbing Minneapolis Center
06:04PM 41.0156 -94.9822 251° West 419 482 37,100 1,020 Climbing Minneapolis Center
06:05PM 41.0078 -95.1250 266° West 402 463 37,800 420 Climbing Minneapolis Center
06:06PM 40.9981 -95.2717 265° West 399 459 38,000 60 Climbing Minneapolis Center
06:07PM 40.9844 -95.4181 263° West 400 460 38,000  Level Minneapolis Center
06:09PM 40.9725 -95.5606 264° West 392 451 38,000  Level Minneapolis Center
06:10PM 40.9600 -95.7031 263° West 388 447 38,000  Level Minneapolis Center
06:11PM 40.9483 -95.8461 264° West 389 448 38,000  Level Minneapolis Center
06:12PM 40.9364 -96.0192 265° West 391 450 38,000  Level Minneapolis Center
06:13PM 40.9256 -96.1628 264° West 390 449 38,000  Level Minneapolis Center
06:14PM 40.9136 -96.3069 264° West 392 451 38,000  Level Minneapolis Center
06:15PM 40.9025 -96.4517 264° West 394 453 38,000  Level Minneapolis Center
06:16PM 40.8903 -96.5950 264° West 393 452 38,000  Level Minneapolis Center
06:17PM 40.8786 -96.7386 264° West 393 452 38,000  Level Minneapolis Center
06:18PM 40.8639 -96.9133 264° West 396 456 38,000  Level Minneapolis Center
06:19PM 40.8514 -97.0569 263° West 395 455 38,000  Level Minneapolis Center
06:20PM 40.8389 -97.2025 264° West 397 457 38,000  Level Minneapolis Center
06:21PM 40.8267 -97.3472 264° West 397 457 38,000  Level Minneapolis Center
06:22PM 40.8133 -97.4992 263° West 396 456 38,000  Level Minneapolis Center
06:23PM 40.8011 -97.6422 264° West 393 452 38,000  Level Minneapolis Center
06:24PM 40.7875 -97.7850 263° West 392 451 38,000  Level Minneapolis Center
06:25PM 40.7739 -97.9272 263° West 391 450 38,000  Level Minneapolis Center
06:26PM 40.7578 -98.0964 263° West 388 447 38,000  Level Minneapolis Center
06:27PM 40.7442 -98.2372 263° West 387 445 38,000  Level Minneapolis Center
06:28PM 40.7311 -98.3792 263° West 388 447 38,000  Level Minneapolis Center
06:29PM 40.7167 -98.5236 263° West 393 452 38,000  Level Minneapolis Center
06:30PM 40.7025 -98.6700 263° West 397 457 38,000  Level Minneapolis Center
06:31PM 40.6867 -98.8169 262° West 401 461 38,000  Level Minneapolis Center
06:32PM 40.6728 -98.9653 263° West 404 465 38,000  Level Minneapolis Center
06:33PM 40.6575 -99.1119 262° West 403 464 38,000  Level Minneapolis Center
06:34PM 40.6386 -99.2875 262° West 402 463 38,000  Level Denver Center
06:36PM 40.6236 -99.4331 262° West 400 460 38,000  Level Denver Center
06:37PM 40.6075 -99.5775 262° West 398 458 38,000  Level Denver Center
06:38PM 40.5925 -99.7219 262° West 399 459 38,000  Level Denver Center
06:39PM 40.5747 -99.8822 262° West 399 459 38,000  Level Denver Center
06:40PM 40.5564 -100.0444 262° West 401 461 38,000  Level Denver Center
06:41PM 40.5406 -100.1822 261° West 399 459 38,000  Level Denver Center
06:42PM 40.5225 -100.3456 262° West 402 463 38,000  Level Denver Center
06:43PM 40.5050 -100.4861 261° West 404 465 38,000  Level Denver Center
06:44PM 40.4836 -100.6758 262° West 409 471 38,000  Level Denver Center
06:45PM 40.4658 -100.8189 261° West 411 473 38,000  Level Denver Center
06:46PM 40.4444 -100.9856 260° West 411 473 38,000  Level Denver Center
06:47PM 40.4292 -101.1292 262° West 414 476 38,000  Level Denver Center
06:48PM 40.4108 -101.2731 261° West 415 478 38,000  Level Denver Center
06:49PM 40.3908 -101.4383 261° West 412 474 38,000  Level Denver Center
06:50PM 40.3717 -101.5803 260° West 412 474 38,000  Level Denver Center
06:51PM 40.3508 -101.7447 261° West 409 471 38,000  Level Denver Center
06:52PM 40.3333 -101.8836 261° West 405 466 38,000  Level Denver Center
06:53PM 40.3233 -102.0431 265° West 395 455 38,000  Level Denver Center
06:54PM 40.3183 -102.1789 267° West 391 450 38,000  Level Denver Center
06:55PM 40.3100 -102.3361 266° West 388 447 38,000  Level Denver Center
06:56PM 40.3033 -102.4719 266° West 389 448 38,000  Level Denver Center
06:57PM 40.2947 -102.6319 266° West 394 453 38,000  Level Denver Center
06:58PM 40.2867 -102.7636 265° West 396 456 38,000  Level Denver Center
07:00PM 40.2789 -102.9092 266° West 401 461 38,000  Level Denver Center
07:01PM 40.2700 -103.0847 266° West 405 466 38,000  Level Denver Center
07:02PM 40.2617 -103.2319 266° West 408 470 38,000  Level Denver Center
07:03PM 40.2525 -103.3794 265° West 407 468 38,000  Level Denver Center
07:04PM 40.2425 -103.5269 265° West 410 472 38,000  Level Denver Center
07:05PM 40.2336 -103.6747 266° West 411 473 38,000  Level Denver Center
07:06PM 40.2233 -103.8281 265° West 423 487 38,000  Level Denver Center
07:07PM 40.2103 -104.0053 265° West 411 473 38,000  Level Denver Center
07:08PM 40.2003 -104.1556 265° West 416 479 38,000  Level Denver Center
07:09PM 40.1900 -104.3058 265° West 418 481 38,000  Level Denver Center
07:10PM 40.1797 -104.4569 265° West 421 484 38,000  Level Denver Center
07:11PM 40.1686 -104.6078 265° West 419 482 38,000  Level Denver Center
07:12PM 40.1614 -104.7933 267° West 428 493 38,000  Level Denver Center
07:13PM 40.1658 -104.9461 272° West 424 488 38,000  Level Denver Center
07:14PM 40.1678 -105.1014 271° West 427 491 38,000  Level Denver Center
07:15PM 40.1700 -105.2517 271° West 416 479 38,000  Level Denver Center
07:16PM 40.1717 -105.4058 271° West 422 486 38,000  Level Denver Center
07:17PM 40.1606 -105.5861 265° West 417 480 38,000  Level Denver Center
07:18PM 40.1425 -105.7358 261° West 422 486 38,000  Level Denver Center
07:19PM 40.1242 -105.8817 261° West 410 472 38,000  Level Denver Center
07:20PM 40.1061 -106.0314 261° West 414 476 38,000  Level Denver Center
07:21PM 40.0869 -106.1819 261° West 420 483 38,000  Level Denver Center
07:22PM 40.0683 -106.3333 261° West 423 487 38,000  Level Denver Center
07:23PM 40.0447 -106.5083 260° West 422 486 38,000  Level Denver Center
07:24PM 40.0258 -106.6550 260° West 427 491 38,000  Level Denver Center
07:25PM 40.0042 -106.8239 261° West 424 488 38,000  Level Denver Center
07:26PM 39.9847 -106.9681 260° West 423 487 38,000  Level Denver Center
07:27PM 39.9617 -107.1383 260° West 425 489 38,000  Level Denver Center
07:28PM 39.9417 -107.2842 260° West 428 493 38,000  Level Denver Center
07:30PM 39.9186 -107.4531 260° West 425 489 38,000  Level Denver Center
07:31PM 39.8997 -107.5986 260° West 426 490 38,000  Level Denver Center
07:32PM 39.8756 -107.7678 260° West 426 490 38,000  Level Denver Center
07:33PM 39.8544 -107.9119 259° West 426 490 38,000  Level Denver Center
07:34PM 39.8319 -108.0803 260° West 423 487 38,000  Level Denver Center
07:35PM 39.8117 -108.2247 260° West 422 486 38,000  Level Denver Center
07:36PM 39.7869 -108.3903 259° West 420 483 38,000  Level Denver Center
07:37PM 39.7658 -108.5328 259° West 419 482 38,000  Level Denver Center
07:38PM 39.7417 -108.6986 259° West 427 491 38,000  Level Denver Center
07:39PM 39.7261 -108.8425 262° West 436 502 38,000  Level Denver Center
07:40PM 39.7175 -109.0133 266° West 432 497 38,000  Level Denver Center
07:41PM 39.7108 -109.1594 267° West 427 491 38,000  Level Denver Center
07:42PM 39.7033 -109.3294 267° West 425 489 38,000  Level Denver Center
07:43PM 39.6967 -109.4739 267° West 422 486 38,000  Level Denver Center
07:44PM 39.6892 -109.6439 267° West 422 486 38,000  Level Denver Center
07:45PM 39.6833 -109.7908 267° West 424 488 38,000  Level Denver Center
07:46PM 39.6769 -109.9592 267° West 420 483 38,000  Level Denver Center
07:47PM 39.6561 -110.1003 259° West 416 479 38,000  Level Denver Center
07:48PM 39.6244 -110.2631 256° West 418 481 38,000  Level Denver Center
07:49PM 39.6008 -110.4044 258° West 418 481 38,000  Level Denver Center
07:50PM 39.5714 -110.5697 257° West 421 484 38,000  Level Denver Center
07:51PM 39.5450 -110.7111 256° West 423 487 38,000  Level Denver Center
07:52PM 39.5158 -110.8742 257° West 419 482 38,000  Level Denver Center
07:53PM 39.4861 -111.0392 257° West 421 484 38,000  Level Salt Lake Center
07:55PM 39.4611 -111.1794 257° West 419 482 38,000  Level Salt Lake Center
07:56PM 39.4306 -111.3372 256° West 424 488 38,000  Level Salt Lake Center
07:57PM 39.4028 -111.4839 256° West 422 486 38,000  Level Salt Lake Center
07:58PM 39.3739 -111.6331 256° West 428 493 38,000  Level Salt Lake Center
07:59PM 39.3386 -111.8136 256° West 431 496 38,000  Level Salt Lake Center
08:00PM 39.3092 -111.9603 255° West 426 490 38,000  Level Salt Lake Center
08:01PM 39.2800 -112.1097 256° West 429 494 38,000  Level Salt Lake Center
08:02PM 39.2531 -112.2569 257° West 425 489 38,000  Level Salt Lake Center
08:03PM 39.2189 -112.4225 255° West 423 487 38,000  Level Salt Lake Center
08:04PM 39.1889 -112.5683 255° West 424 488 38,000  Level Salt Lake Center
08:05PM 39.1586 -112.7172 255° West 428 493 38,000  Level Salt Lake Center
08:06PM 39.1292 -112.8628 255° West 423 487 38,000  Level Salt Lake Center
08:07PM 39.0981 -113.0081 255° West 423 487 38,000  Level Salt Lake Center
08:08PM 39.0686 -113.1494 255° West 415 478 38,000  Level Salt Lake Center
08:09PM 39.0333 -113.3244 256° West 419 482 38,000  Level Salt Lake Center
08:10PM 39.0033 -113.4689 255° West 421 484 38,000  Level Salt Lake Center
08:11PM 38.9719 -113.6139 254° West 422 486 38,000  Level Salt Lake Center
08:12PM 38.9433 -113.7600 256° West 423 487 38,000  Level Salt Lake Center
08:13PM 38.9389 -113.9089 268° West 421 484 38,000  Level Salt Lake Center
08:14PM 38.9472 -114.0600 274° West 427 491 38,000  Level Salt Lake Center
08:15PM 38.9800 -114.2339 284° West 420 483 38,000  Level Salt Lake Center
08:16PM 39.0194 -114.3758 290° West 423 487 38,000  Level Salt Lake Center
08:17PM 39.0536 -114.5222 287° West 429 494 38,000  Level Salt Lake Center
08:18PM 39.0619 -114.6728 274° West 425 489 38,000  Level Salt Lake Center
08:19PM 39.0456 -114.8206 262° West 421 484 38,000  Level Salt Lake Center
08:20PM 39.0111 -114.9636 253° West 419 482 38,000  Level Salt Lake Center
08:21PM 38.9686 -115.1289 252° West 409 471 38,000  Level Salt Lake Center
08:22PM 38.9336 -115.2656 252° West 406 467 38,000  Level Salt Lake Center
08:23PM 38.8961 -115.3986 250° West 405 466 38,000  Level Salt Lake Center
08:24PM 38.8578 -115.5344 250° West 408 470 38,000  Level Salt Lake Center
08:25PM 38.8181 -115.6675 249° West 401 461 38,000  Level Salt Lake Center
08:27PM 38.7772 -115.7994 248° West 397 457 38,000  Level Salt Lake Center
08:28PM 38.7175 -115.9500 243° Southwest 396 456 38,000  Level Salt Lake Center
08:29PM 38.6697 -116.0783 245° Southwest 398 458 38,000  Level Salt Lake Center
08:29PM 38.6494 -116.1297 243° Southwest 399 459 38,000  Level Oakland Center
08:30PM 38.6008 -116.2581 244° Southwest 401 461 38,000  Level Oakland Center
08:31PM 38.5508 -116.3861 244° Southwest 403 464 38,000  Level Oakland Center
08:32PM 38.5222 -116.4631 245° Southwest 401 461 38,000  Level Salt Lake Center
08:33PM 38.4731 -116.5889 244° Southwest 399 459 38,000  Level Salt Lake Center
08:34PM 38.4139 -116.7403 244° Southwest 398 458 38,000  Level Salt Lake Center
08:35PM 38.3644 -116.8661 243° Southwest 397 457 38,000  Level Salt Lake Center
08:36PM 38.3153 -116.9917 244° Southwest 397 457 38,000  Level Salt Lake Center
08:37PM 38.2669 -117.1167 244° Southwest 398 458 38,000  Level Salt Lake Center
08:38PM 38.2192 -117.2411 244° Southwest 402 463 38,000  Level Salt Lake Center
08:39PM 38.1583 -117.3867 242° Southwest 400 460 38,000  Level Salt Lake Center
08:40PM 38.1100 -117.5078 243° Southwest 391 450 38,000  Level Salt Lake Center
08:41PM 38.0617 -117.6300 243° Southwest 389 448 38,000  Level Salt Lake Center
08:42PM 38.0136 -117.7503 243° Southwest 384 442 38,000  Level Salt Lake Center
08:43PM 37.9908 -117.8858 258° West 389 448 38,000  Level Salt Lake Center
08:44PM 37.9769 -118.0222 263° West 392 451 38,000  Level Salt Lake Center
08:45PM 37.9586 -118.1858 262° West 392 451 38,000  Level Salt Lake Center
08:46PM 37.9436 -118.3231 262° West 393 452 38,000  Level Salt Lake Center
08:47PM 37.9292 -118.4592 262° West 391 450 38,000  Level Salt Lake Center
08:49PM 37.9050 -118.6522 261° West 394 453 38,000  Level Oakland Center
08:50PM 37.8908 -118.7917 263° West 398 458 38,000  Level Oakland Center
08:51PM 37.8764 -118.9300 263° West 398 458 38,000  Level Oakland Center
08:52PM 37.8614 -119.0572 262° West 401 461 38,000 -240 Level Oakland Center
08:53PM 37.8406 -119.2233 261° West 400 460 37,600 -780 Descending Oakland Center
08:54PM 37.8239 -119.3617 261° West 399 459 36,500 -1,140 Descending Oakland Center
08:55PM 37.8081 -119.4994 262° West 396 456 35,300 -1,320 Descending Oakland Center
08:56PM 37.7928 -119.6392 262° West 400 460 33,900 -1,320 Descending Oakland Center
08:57PM 37.7756 -119.7811 261° West 408 470 32,700 -960 Descending Oakland Center
08:58PM 37.7575 -119.9242 261° West 413 475 32,000 -840 Descending Oakland Center
08:59PM 37.7400 -120.0675 261° West 413 475 31,000 -1,200 Descending Oakland Center
09:00PM 37.7222 -120.2119 261° West 415 478 29,600 -1,380 Descending Oakland Center
09:01PM 37.7039 -120.3519 261° West 408 470 28,200 -1,620 Descending Oakland Center
09:02PM 37.6814 -120.5197 260° West 404 465 26,400 -1,920 Descending Oakland Center
09:03PM 37.6639 -120.6531 261° West 389 448 24,300 -1,980 Descending Oakland Center
09:04PM 37.6461 -120.7875 261° West 389 448 22,300 -1,980 Descending Oakland Center
09:05PM 37.6292 -120.9178 261° West 382 440 20,300 -1,980 Descending Oakland Center
09:06PM 37.6144 -121.0458 262° West 375 432 18,400 -1,860 Descending Oakland Center
09:07PM 37.6022 -121.1672 263° West 364 419 16,500 -1,800 Descending Oakland Center
09:08PM 37.5894 -121.2842 262° West 346 398 14,800 -1,740 Descending Oakland Center
09:09PM 37.5753 -121.4011 261° West 338 389 13,000 -1,620 Descending Oakland Center
09:10PM 37.5611 -121.5156 261° West 332 382 11,500 -1,080 Descending Oakland Center
09:11PM 37.5458 -121.6436 261° West 310 357 10,900 -900 Descending Oakland Center
09:12PM 37.5186 -121.7389 250° West 290 334 9,700 -1,020 Descending Oakland Center
09:13PM 37.4931 -121.8333 251° West 285 328 8,900 -840 Descending Oakland Center
09:14PM 37.4833 -121.9167 262° West 229 264 8,000 -1,140 Descending Northern Cal TRACON
09:15PM 37.5000 -121.9833 288° West 212 244 6,700 -1,380 Descending Northern Cal TRACON
09:16PM 37.5167 -122.0500 288° West 202 232 5,300 -1,380 Descending Northern Cal TRACON
09:17PM 37.5500 -122.1167 302° West 190 219 4,000 -1,320 Descending Northern Cal TRACON